createdAt,value
2022-12-25T00:01:46.143Z,16.63
2022-12-25T00:07:47.578Z,18.67
2022-12-25T00:13:49.565Z,17.33
2022-12-25T00:19:51.014Z,19.88
2022-12-25T00:25:52.913Z,13.47
2022-12-25T00:31:54.430Z,12.38
2022-12-25T00:37:55.910Z,15.43
2022-12-25T00:43:57.342Z,14.88
2022-12-25T00:49:58.812Z,16.17
2022-12-25T00:56:01.404Z,14.83
2022-12-25T01:02:21.964Z,14.63
2022-12-25T01:08:23.737Z,10.73
2022-12-25T01:14:25.245Z,11.20
2022-12-25T01:20:26.700Z,9.63
2022-12-25T01:26:28.312Z,12.23
2022-12-25T01:32:29.767Z,19.02
2022-12-25T01:38:31.234Z,13.00
2022-12-25T01:44:35.664Z,11.68
2022-12-25T01:50:38.784Z,11.98
2022-12-25T01:56:41.811Z,15.90
2022-12-25T02:02:44.380Z,13.18
2022-12-25T02:08:45.996Z,15.13
2022-12-25T02:14:49.059Z,12.18
2022-12-25T02:21:17.801Z,12.52
2022-12-25T02:27:24.279Z,14.30
2022-12-25T02:33:49.704Z,13.82
2022-12-25T02:40:10.279Z,10.13
2022-12-25T02:46:32.231Z,17.35
2022-12-25T02:52:52.909Z,15.43
2022-12-25T02:59:13.108Z,12.33
2022-12-25T03:05:35.451Z,13.40
2022-12-25T03:11:36.983Z,20.10
2022-12-25T03:17:38.517Z,15.43
2022-12-25T03:24:00.380Z,10.95
2022-12-25T03:30:22.186Z,16.90
2022-12-25T03:36:28.115Z,18.98
2022-12-25T03:42:56.583Z,15.20
2022-12-25T03:49:22.316Z,14.57
2022-12-25T03:55:43.610Z,14.40
2022-12-25T04:02:04.032Z,13.77
2022-12-25T04:08:24.632Z,13.00
2022-12-25T04:14:45.018Z,19.23
2022-12-25T04:21:05.217Z,9.77
2022-12-25T04:27:25.515Z,15.90
2022-12-25T04:33:45.995Z,15.47
2022-12-25T04:39:47.544Z,11.07
2022-12-25T04:45:52.644Z,17.00
2022-12-25T04:51:54.164Z,12.60
2022-12-25T04:57:55.647Z,12.35
2022-12-25T05:03:57.237Z,16.27
2022-12-25T05:09:58.806Z,15.90
2022-12-25T05:16:00.294Z,11.50
2022-12-25T05:22:01.784Z,21.20
2022-12-25T05:28:03.322Z,12.40
2022-12-25T05:34:04.777Z,15.00
2022-12-25T05:40:06.540Z,16.13
2022-12-25T05:46:08.892Z,12.87
2022-12-25T05:52:10.435Z,17.67
2022-12-25T05:58:13.183Z,15.50
2022-12-25T06:04:14.669Z,16.53
2022-12-25T06:10:16.170Z,15.57
2022-12-25T06:16:17.811Z,13.97
2022-12-25T06:22:19.553Z,10.80
2022-12-25T06:28:21.075Z,16.13
2022-12-25T06:34:22.955Z,12.80
2022-12-25T06:40:24.585Z,12.23
2022-12-25T06:46:27.467Z,18.50
2022-12-25T06:52:31.338Z,19.33
2022-12-25T06:58:32.990Z,14.30
2022-12-25T07:04:41.118Z,17.53
2022-12-25T07:10:42.697Z,18.40
2022-12-25T07:16:44.394Z,10.47
2022-12-25T07:22:46.049Z,11.15
2022-12-25T07:28:47.713Z,13.55
2022-12-25T07:34:49.339Z,10.60
2022-12-25T07:40:50.858Z,13.25
2022-12-25T07:46:52.592Z,12.73
2022-12-25T07:52:55.255Z,12.15
2022-12-25T07:58:56.880Z,15.07
2022-12-25T08:04:58.548Z,11.77
2022-12-25T08:11:00.292Z,12.68
2022-12-25T08:17:01.765Z,13.90
2022-12-25T08:23:03.793Z,17.73
2022-12-25T08:29:05.254Z,12.60
2022-12-25T08:35:07.118Z,14.87
2022-12-25T08:41:09.094Z,19.92
2022-12-25T08:47:10.528Z,16.80
2022-12-25T08:53:12.182Z,15.82
2022-12-25T08:59:13.636Z,20.55
2022-12-25T09:05:15.084Z,13.77
2022-12-25T09:11:17.651Z,18.60
2022-12-25T09:17:19.496Z,13.23
2022-12-25T09:23:20.927Z,18.45
2022-12-25T09:29:22.451Z,13.02
2022-12-25T09:35:24.007Z,10.07
2022-12-25T09:41:25.457Z,13.20
2022-12-25T09:47:29.023Z,12.43
2022-12-25T09:53:35.579Z,12.73
2022-12-25T09:59:37.578Z,12.23
2022-12-25T10:06:01.493Z,9.10
2022-12-25T10:12:17.279Z,11.00
2022-12-25T10:18:38.191Z,11.47
2022-12-25T10:24:45.344Z,12.50
2022-12-25T10:30:48.604Z,7.82
2022-12-25T10:36:50.407Z,10.63
2022-12-25T10:42:55.299Z,10.18
2022-12-25T10:48:58.823Z,9.67
2022-12-25T10:55:10.114Z,11.63
2022-12-25T11:01:12.243Z,12.50
2022-12-25T11:07:19.314Z,9.87
2022-12-25T11:13:21.730Z,11.07
2022-12-25T11:19:28.534Z,12.17
2022-12-25T11:25:30.072Z,7.85
2022-12-25T11:31:40.579Z,8.52
2022-12-25T11:37:44.870Z,8.73
2022-12-25T11:43:48.707Z,11.73
2022-12-25T11:50:00.933Z,12.47
2022-12-25T11:56:11.575Z,13.20
2022-12-25T12:02:21.328Z,12.40
2022-12-25T12:08:22.961Z,10.93
2022-12-25T12:14:39.575Z,11.65
2022-12-25T12:20:41.391Z,10.10
2022-12-25T12:26:44.510Z,7.57
2022-12-25T12:32:50.639Z,8.55
2022-12-25T12:38:52.909Z,10.07
2022-12-25T12:44:55.844Z,10.32
2022-12-25T12:51:10.174Z,10.50
2022-12-25T12:57:29.470Z,10.85
2022-12-25T13:03:49.724Z,7.65
2022-12-25T13:09:58.042Z,9.63
2022-12-25T13:15:59.514Z,8.85
2022-12-25T13:22:02.087Z,10.07
2022-12-25T13:28:04.814Z,6.40
2022-12-25T13:34:12.895Z,7.72
2022-12-25T13:40:23.013Z,11.40
2022-12-25T13:46:25.886Z,18.98
2022-12-25T13:52:34.800Z,16.67
2022-12-25T13:58:37.108Z,9.25
2022-12-25T14:04:43.757Z,6.20
2022-12-25T14:10:48.099Z,9.07
2022-12-25T14:16:50.906Z,7.85
2022-12-25T14:22:53.858Z,5.97
2022-12-25T14:28:58.203Z,8.68
2022-12-25T14:35:03.373Z,8.40
2022-12-25T14:41:07.419Z,6.10
2022-12-25T14:47:19.408Z,7.10
2022-12-25T14:53:22.104Z,7.90
2022-12-25T14:59:25.076Z,10.68
2022-12-25T15:05:28.487Z,8.88
2022-12-25T15:11:30.004Z,7.00
2022-12-25T15:17:33.138Z,9.63
2022-12-25T15:23:35.012Z,10.27
2022-12-25T15:30:08.407Z,12.40
2022-12-25T15:35:57.884Z,9.52
2022-12-25T15:42:12.738Z,9.37
2022-12-25T15:48:14.435Z,10.30
2022-12-25T15:54:16.399Z,11.03
2022-12-25T16:00:19.143Z,10.98
2022-12-25T16:06:20.587Z,12.43
2022-12-25T16:12:22.191Z,11.00
2022-12-25T16:18:23.899Z,13.63
2022-12-25T16:24:25.508Z,14.00
2022-12-25T16:30:27.029Z,11.80
2022-12-25T16:36:28.511Z,14.88
2022-12-25T16:42:29.985Z,13.07
2022-12-25T16:48:31.463Z,16.73
2022-12-25T16:54:32.990Z,17.43
2022-12-25T17:00:34.483Z,17.05
2022-12-25T17:06:36.201Z,16.23
2022-12-25T17:12:37.763Z,14.83
2022-12-25T17:18:39.262Z,17.95
2022-12-25T17:24:41.460Z,16.27
2022-12-25T17:30:42.940Z,18.13
2022-12-25T17:36:44.759Z,16.38
2022-12-25T17:42:46.213Z,15.67
2022-12-25T17:48:49.885Z,12.07
2022-12-25T17:54:51.446Z,11.83
2022-12-25T18:00:53.569Z,13.68
2022-12-25T18:06:55.025Z,20.25
2022-12-25T18:12:56.473Z,15.90
2022-12-25T18:18:59.504Z,15.95
2022-12-25T18:25:01.042Z,9.03
2022-12-25T18:31:02.642Z,9.73
2022-12-25T18:37:04.201Z,9.57
2022-12-25T18:43:05.664Z,8.97
2022-12-25T18:49:07.177Z,9.48
2022-12-25T18:55:09.168Z,8.60
2022-12-25T19:01:15.267Z,6.65
2022-12-25T19:07:16.744Z,9.50
2022-12-25T19:13:18.215Z,7.07
2022-12-25T19:19:19.893Z,6.07
2022-12-25T19:25:21.369Z,5.17
2022-12-25T19:31:22.935Z,5.40
2022-12-25T19:37:24.390Z,4.60
2022-12-25T19:43:30.292Z,5.43
2022-12-25T19:49:33.746Z,5.10
2022-12-25T19:55:35.679Z,4.40
2022-12-25T20:01:39.028Z,5.70
2022-12-25T20:07:41.270Z,5.43
2022-12-25T20:13:43.882Z,4.47
2022-12-25T20:19:45.791Z,4.10
2022-12-25T20:25:47.764Z,4.30
2022-12-25T20:31:49.477Z,3.72
2022-12-25T20:37:51.170Z,4.68
2022-12-25T20:43:52.973Z,4.20
2022-12-25T20:49:54.671Z,4.82
2022-12-25T20:55:56.324Z,7.43
2022-12-25T21:01:57.996Z,5.47
2022-12-25T21:07:59.634Z,4.10
2022-12-25T21:14:01.095Z,4.30
2022-12-25T21:20:02.875Z,4.93
2022-12-25T21:26:15.921Z,5.17
2022-12-25T21:32:43.564Z,5.90
2022-12-25T21:38:45.470Z,5.03
2022-12-25T21:44:47.772Z,5.13
2022-12-25T21:51:07.804Z,5.40
2022-12-25T21:57:09.232Z,4.53
2022-12-25T22:03:10.729Z,4.97
2022-12-25T22:09:12.515Z,4.07
2022-12-25T22:15:13.963Z,5.97
2022-12-25T22:21:19.689Z,5.38
2022-12-25T22:27:21.558Z,4.33
2022-12-25T22:33:25.426Z,5.60
2022-12-25T22:39:27.277Z,6.18
2022-12-25T22:45:28.766Z,6.30
2022-12-25T22:51:30.673Z,5.43
2022-12-25T22:57:32.130Z,4.33
2022-12-25T23:03:33.755Z,5.03
2022-12-25T23:09:35.410Z,4.30
2022-12-25T23:15:36.894Z,4.83
2022-12-25T23:21:57.121Z,4.85
2022-12-25T23:27:58.601Z,6.90
2022-12-25T23:34:00.815Z,4.90
2022-12-25T23:40:02.307Z,6.60
2022-12-25T23:46:04.351Z,7.37
2022-12-25T23:52:06.157Z,7.13
2022-12-25T23:58:07.655Z,6.03
